Mason Cove, Virginia
Current Conditions -  °F | °C
As of 10:54 AM on Friday 24 Oct 2014 (Local Time) from KROA Reporting Station
Broken Clouds Broken Clouds  
Wind Chill: 56°   Ceiling: 25000
Heat Index: 56°   Visibility: 10mi
Dew Point: 42°   Wind: 7mph
Humidity: 60%   Direction: 260°W
Pressure: 30.09"   Gusts: NA
Location:  37.2956°N, 80.1166°W
Report Text: KROA 241454Z 26006KT 10SM SCT180 BKN250 13/06 A3009 RMK AO2 SLP189 T01330056 50003
Loading
Personal Weather Stations






























Interactive Weather Map
Tropical Storm Tracking
New forecast layout! Learn more

10-Day Weather Forecast

Advertisements
Track Severe Weather on mobile